首页
METAR-TAF:

METAR-TAF

机场 :

何塞·马蒂国际机场

哈瓦那, 古巴

纬度: 22-59N, 经度: 082-24W, 海拔: 59米

当前天气观测

该预报发布于1小时和8分钟前的09:55 UTC
风速1节,风向多变
温度 21°C
湿度 100%
气压 1014 hPa
能見度: 9000
少量云层高于3000英尺

METAR: MUHA 150955Z VRB01KT 9000 FEW030 21/21 Q1014

时间: 06:03 (11:03 UTC)

预报

该预报发布于6小时和3分钟前的05:00 UTC
预报有效从15日的 06点(UTC)到 16日的 06点(UTC)
风速3节,风向多变
能見度: 9000
散云层高于3000英尺
成为
从 15日的 11点(UTC)到 15日的 13点(UTC)
风速10节,风向
几率 30% :
短暂存在
从 15日的 19点(UTC)到 15日的 23点(UTC)
能見度: 5000
少量云层高于1800英尺, 积雨云.
多云层高于2500英尺
阵雨
成为
从 16日的 02点(UTC)到 16日的 04点(UTC)
风速3节,风向

TAF: MUHA 150500Z 1506/1606 VRB03KT 9000 SCT030 BECMG 1511/1513 36010KT PROB30 TEMPO 1519/1523 5000 SHRA FEW018CB BKN025 BECMG 1602/1604 36003KT

超过4000个机场的气象观测和天气预报(METAR&TAF报告)。

可查询的气象台以黄色和红色小点在地图上表示。

将鼠标移到小点上方,可查看气象台名称。

然后点击查看天气观测和预报。

如需切换地图:点击带黑十字的绿色按钮放大地图;点击带横线的绿色按钮缩小地图;或者点击绿色箭头查看邻近地区的地图。


METAR-TAF: